createdAt,value
2023-03-22T00:01:51.333Z,9.80
2023-03-22T00:04:26.925Z,9.18
2023-03-22T00:06:54.379Z,9.25
2023-03-22T00:09:28.068Z,8.65
2023-03-22T00:11:55.484Z,9.23
2023-03-22T00:14:28.613Z,9.30
2023-03-22T00:16:56.601Z,9.00
2023-03-22T00:19:26.346Z,9.05
2023-03-22T00:21:56.838Z,9.40
2023-03-22T00:24:29.860Z,9.30
2023-03-22T00:27:01.574Z,8.93
2023-03-22T00:29:34.818Z,9.20
2023-03-22T00:32:02.745Z,8.82
2023-03-22T00:34:38.114Z,9.10
2023-03-22T00:37:08.478Z,10.65
2023-03-22T00:39:38.758Z,8.77
2023-03-22T00:42:10.788Z,8.73
2023-03-22T00:44:44.609Z,10.13
2023-03-22T00:47:15.829Z,9.82
2023-03-22T00:49:45.314Z,10.45
2023-03-22T00:52:16.169Z,8.93
2023-03-22T00:54:46.636Z,8.75
2023-03-22T00:57:17.874Z,9.30
2023-03-22T00:59:48.931Z,9.63
2023-03-22T01:02:18.760Z,8.93
2023-03-22T01:04:49.899Z,9.43
2023-03-22T01:07:25.853Z,8.90
2023-03-22T01:09:58.561Z,9.63
2023-03-22T01:12:29.642Z,9.20
2023-03-22T01:14:57.033Z,9.80
2023-03-22T01:17:30.244Z,9.48
2023-03-22T01:20:07.268Z,9.27
2023-03-22T01:22:37.353Z,9.50
2023-03-22T01:25:12.382Z,9.50
2023-03-22T01:27:40.277Z,8.73
2023-03-22T01:30:16.917Z,9.90
2023-03-22T01:32:47.437Z,9.48
2023-03-22T01:35:16.131Z,9.45
2023-03-22T01:37:46.770Z,9.43
2023-03-22T01:40:18.682Z,9.27
2023-03-22T01:42:52.469Z,8.98
2023-03-22T01:48:37.477Z,8.57
2023-03-22T01:51:25.279Z,9.60
2023-03-22T01:54:36.519Z,8.85
2023-03-22T01:57:18.512Z,9.23
2023-03-22T01:59:52.476Z,9.23
2023-03-22T02:02:42.952Z,10.15
2023-03-22T02:05:25.825Z,8.80
2023-03-22T02:07:59.756Z,8.88
2023-03-22T02:10:34.228Z,8.82
2023-03-22T02:13:22.740Z,9.80
2023-03-22T02:19:10.542Z,10.25
2023-03-22T02:22:09.787Z,9.77
2023-03-22T02:25:12.769Z,9.10
2023-03-22T02:27:58.664Z,9.45
2023-03-22T02:30:54.229Z,8.77
2023-03-22T02:34:06.016Z,9.55
2023-03-22T02:36:42.651Z,9.73
2023-03-22T02:39:29.754Z,9.07
2023-03-22T02:42:20.170Z,9.35
2023-03-22T02:45:01.398Z,9.00
2023-03-22T02:47:41.429Z,9.80
2023-03-22T02:50:27.482Z,9.38
2023-03-22T02:53:14.250Z,8.60
2023-03-22T02:56:18.236Z,9.38
2023-03-22T02:58:57.565Z,10.00
2023-03-22T03:01:38.475Z,9.07
2023-03-22T03:04:10.880Z,9.30
2023-03-22T03:06:47.491Z,8.95
2023-03-22T03:09:22.453Z,8.55
2023-03-22T03:11:54.024Z,10.38
2023-03-22T03:14:25.998Z,9.18
2023-03-22T03:17:41.376Z,9.20
2023-03-22T03:20:11.651Z,9.73
2023-03-22T03:23:13.688Z,8.60
2023-03-22T03:26:10.542Z,9.80
2023-03-22T03:28:50.163Z,10.20
2023-03-22T03:31:46.958Z,9.80
2023-03-22T03:34:14.320Z,8.95
2023-03-22T03:36:53.499Z,9.20
2023-03-22T03:39:30.822Z,8.75
2023-03-22T03:42:01.931Z,9.48
2023-03-22T03:44:35.904Z,9.75
2023-03-22T03:47:08.860Z,9.90
2023-03-22T03:49:39.791Z,8.73
2023-03-22T03:52:07.725Z,9.40
2023-03-22T03:54:41.057Z,9.27
2023-03-22T03:57:12.446Z,10.27
2023-03-22T03:59:44.705Z,9.18
2023-03-22T04:02:30.564Z,9.63
2023-03-22T04:05:00.416Z,8.75
2023-03-22T04:07:31.052Z,8.27
2023-03-22T04:10:09.562Z,9.55
2023-03-22T04:12:42.679Z,9.25
2023-03-22T04:15:15.752Z,9.23
2023-03-22T04:17:48.871Z,9.52
2023-03-22T04:20:20.749Z,9.43
2023-03-22T04:22:49.974Z,9.63
2023-03-22T04:25:23.794Z,9.00
2023-03-22T04:28:04.289Z,9.50
2023-03-22T04:30:37.481Z,8.60
2023-03-22T04:33:32.653Z,10.33
2023-03-22T04:36:17.434Z,9.10
2023-03-22T04:39:00.882Z,9.40
2023-03-22T04:41:33.922Z,9.15
2023-03-22T04:44:03.466Z,10.82
2023-03-22T04:46:37.238Z,9.55
2023-03-22T04:49:11.254Z,8.98
2023-03-22T04:51:44.523Z,9.65
2023-03-22T04:54:46.451Z,9.87
2023-03-22T04:57:14.112Z,9.85
2023-03-22T04:59:49.942Z,8.70
2023-03-22T05:02:17.552Z,10.35
2023-03-22T05:04:46.974Z,8.55
2023-03-22T05:07:32.433Z,9.23
2023-03-22T05:10:05.651Z,9.07
2023-03-22T05:12:36.347Z,9.02
2023-03-22T05:15:26.871Z,8.40
2023-03-22T05:17:59.655Z,9.95
2023-03-22T05:20:30.516Z,9.80
2023-03-22T05:23:10.168Z,9.00
2023-03-22T05:25:45.230Z,9.18
2023-03-22T05:28:22.525Z,9.40
2023-03-22T05:31:00.981Z,9.15
2023-03-22T05:33:55.091Z,9.35
2023-03-22T05:36:25.645Z,9.13
2023-03-22T05:39:15.929Z,10.13
2023-03-22T05:41:52.866Z,8.50
2023-03-22T05:44:26.172Z,8.68
2023-03-22T05:47:10.013Z,8.80
2023-03-22T05:49:53.969Z,8.77
2023-03-22T05:52:27.012Z,8.65
2023-03-22T05:55:20.009Z,8.95
2023-03-22T05:57:57.354Z,8.90
2023-03-22T06:00:32.136Z,9.27
2023-03-22T06:03:28.456Z,9.45
2023-03-22T06:06:01.120Z,8.30
2023-03-22T06:08:47.081Z,8.48
2023-03-22T06:11:19.301Z,8.60
2023-03-22T06:13:55.143Z,9.18
2023-03-22T06:16:32.499Z,8.30
2023-03-22T06:19:02.798Z,8.52
2023-03-22T06:21:34.064Z,9.60
2023-03-22T06:24:02.191Z,9.02
2023-03-22T06:26:31.055Z,9.23
2023-03-22T06:29:00.363Z,9.27
2023-03-22T06:31:34.050Z,8.47
2023-03-22T06:34:07.824Z,10.07
2023-03-22T06:36:42.461Z,8.85
2023-03-22T06:39:17.367Z,8.68
2023-03-22T06:41:46.455Z,9.07
2023-03-22T06:44:17.147Z,8.35
2023-03-22T06:46:55.906Z,9.32
2023-03-22T06:49:40.616Z,9.65
2023-03-22T06:52:09.190Z,8.27
2023-03-22T06:54:37.015Z,9.23
2023-03-22T06:57:07.512Z,9.40
2023-03-22T06:59:37.647Z,9.52
2023-03-22T07:02:10.457Z,10.73
2023-03-22T07:04:40.887Z,9.35
2023-03-22T07:07:18.237Z,9.57
2023-03-22T07:09:46.209Z,9.90
2023-03-22T07:12:16.945Z,9.68
2023-03-22T07:14:50.358Z,8.80
2023-03-22T07:17:41.643Z,10.77
2023-03-22T07:20:09.523Z,10.40
2023-03-22T07:22:45.266Z,8.52
2023-03-22T07:25:13.239Z,9.50
2023-03-22T07:27:40.637Z,11.32
2023-03-22T07:30:09.871Z,11.45
2023-03-22T07:32:48.145Z,9.40
2023-03-22T07:35:21.228Z,9.60
2023-03-22T07:37:55.595Z,9.27
2023-03-22T07:40:31.546Z,9.60
2023-03-22T07:43:02.371Z,9.45
2023-03-22T07:45:44.777Z,8.70
2023-03-22T07:48:34.521Z,10.50
2023-03-22T07:51:42.728Z,10.38
2023-03-22T07:54:14.035Z,10.23
2023-03-22T07:56:48.518Z,11.95
2023-03-22T07:59:19.518Z,9.85
2023-03-22T08:01:52.702Z,8.95
2023-03-22T08:04:34.302Z,10.38
2023-03-22T08:07:13.913Z,9.82
2023-03-22T08:09:43.360Z,10.30
2023-03-22T08:12:14.604Z,9.93
2023-03-22T08:14:48.217Z,8.90
2023-03-22T08:17:26.302Z,9.25
2023-03-22T08:19:59.332Z,9.10
2023-03-22T08:22:45.058Z,10.13
2023-03-22T08:25:25.528Z,10.70
2023-03-22T08:30:33.215Z,9.13
2023-03-22T08:33:01.295Z,9.63
2023-03-22T08:35:33.673Z,9.38
2023-03-22T08:38:04.343Z,8.60
2023-03-22T08:40:46.401Z,10.30
2023-03-22T08:43:14.409Z,10.35
2023-03-22T08:45:45.142Z,10.60
2023-03-22T08:48:19.931Z,9.80
2023-03-22T08:51:12.140Z,8.52
2023-03-22T08:54:05.412Z,11.00
2023-03-22T08:57:09.450Z,10.40
2023-03-22T09:00:04.857Z,9.97
2023-03-22T09:02:53.003Z,10.07
2023-03-22T09:05:23.360Z,9.57
2023-03-22T09:08:02.572Z,9.43
2023-03-22T09:10:40.452Z,10.30
2023-03-22T09:13:13.523Z,9.13
2023-03-22T09:15:48.257Z,12.30
2023-03-22T09:18:32.268Z,9.27
2023-03-22T09:21:10.217Z,10.25
2023-03-22T09:23:54.538Z,9.90
2023-03-22T09:26:27.907Z,9.68
2023-03-22T09:29:00.915Z,9.90
2023-03-22T09:31:37.134Z,9.50
2023-03-22T09:34:24.083Z,10.05
2023-03-22T09:36:56.192Z,11.02
2023-03-22T09:39:32.356Z,9.52
2023-03-22T09:42:21.874Z,8.95
2023-03-22T09:44:55.523Z,9.95
2023-03-22T09:47:46.790Z,8.93
2023-03-22T09:50:26.204Z,9.02
2023-03-22T09:53:00.504Z,10.38
2023-03-22T09:55:42.258Z,10.20
2023-03-22T09:58:49.945Z,10.43
2023-03-22T10:02:08.786Z,8.57
2023-03-22T10:04:59.202Z,11.10
2023-03-22T10:07:58.472Z,10.07
2023-03-22T10:10:27.227Z,9.90
2023-03-22T10:13:14.868Z,9.27
2023-03-22T10:15:52.286Z,9.60
2023-03-22T10:18:37.308Z,10.95
2023-03-22T10:21:11.754Z,9.90
2023-03-22T10:23:47.868Z,10.45
2023-03-22T10:26:21.701Z,10.60
2023-03-22T10:29:37.717Z,10.38
2023-03-22T10:32:20.214Z,10.32
2023-03-22T10:34:52.660Z,9.15
2023-03-22T10:37:32.280Z,9.97
2023-03-22T10:40:07.203Z,9.00
2023-03-22T10:42:39.654Z,9.38
2023-03-22T10:45:16.177Z,9.03
2023-03-22T10:48:00.232Z,9.52
2023-03-22T10:50:38.350Z,8.77
2023-03-22T10:53:15.022Z,9.82
2023-03-22T10:55:46.374Z,9.02
2023-03-22T10:58:19.713Z,9.88
2023-03-22T11:00:57.202Z,9.68
2023-03-22T11:03:34.712Z,8.10
2023-03-22T11:06:12.684Z,9.50
2023-03-22T11:08:54.853Z,11.15
2023-03-22T11:11:33.424Z,9.52
2023-03-22T11:14:19.449Z,9.60
2023-03-22T11:16:58.823Z,9.10
2023-03-22T11:19:35.707Z,9.73
2023-03-22T11:22:25.606Z,8.65
2023-03-22T11:24:59.212Z,8.52
2023-03-22T11:27:37.800Z,10.35
2023-03-22T11:30:28.959Z,10.30
2023-03-22T11:33:09.213Z,10.18
2023-03-22T11:35:38.891Z,9.80
2023-03-22T11:38:07.870Z,12.45
2023-03-22T11:40:37.121Z,9.20
2023-03-22T11:43:10.504Z,10.57
2023-03-22T11:45:45.752Z,10.30
2023-03-22T11:48:22.055Z,9.38
2023-03-22T11:50:56.287Z,10.68
2023-03-22T11:53:28.875Z,11.32
2023-03-22T11:56:00.738Z,9.25
2023-03-22T11:58:45.079Z,9.20
2023-03-22T12:01:22.618Z,9.13
2023-03-22T12:03:56.370Z,8.75
2023-03-22T12:06:33.680Z,11.48
2023-03-22T12:09:13.785Z,10.00
2023-03-22T12:11:46.870Z,9.73
2023-03-22T12:14:27.254Z,9.20
2023-03-22T12:17:16.967Z,9.05
2023-03-22T12:20:06.979Z,9.90
2023-03-22T12:22:43.417Z,9.30
2023-03-22T12:25:24.935Z,8.43
2023-03-22T12:27:59.707Z,8.43
2023-03-22T12:30:31.787Z,9.13
2023-03-22T12:33:35.663Z,10.15
2023-03-22T12:36:07.029Z,8.25
2023-03-22T12:38:46.317Z,9.68
2023-03-22T12:44:43.286Z,11.10
2023-03-22T12:47:25.206Z,12.98
2023-03-22T12:49:59.008Z,12.07
2023-03-22T12:52:46.194Z,14.52
2023-03-22T12:55:23.739Z,13.85
2023-03-22T12:57:57.313Z,17.27
2023-03-22T13:00:33.367Z,19.35
2023-03-22T13:03:20.085Z,16.88
2023-03-22T13:05:50.325Z,16.17
2023-03-22T13:08:22.523Z,16.02
2023-03-22T13:11:05.263Z,18.55
2023-03-22T13:13:42.191Z,15.82
2023-03-22T13:16:11.342Z,15.05
2023-03-22T13:18:45.316Z,16.52
2023-03-22T13:21:24.047Z,15.23
2023-03-22T13:24:15.872Z,20.50
2023-03-22T13:26:52.979Z,16.90
2023-03-22T13:29:39.881Z,17.20
2023-03-22T13:32:38.579Z,18.35
2023-03-22T13:35:28.190Z,15.05
2023-03-22T13:38:26.782Z,14.75
2023-03-22T13:41:01.061Z,14.70
2023-03-22T13:43:50.349Z,15.55
2023-03-22T13:46:23.774Z,13.18
2023-03-22T13:49:00.400Z,16.80
2023-03-22T13:51:33.321Z,16.58
2023-03-22T13:54:16.634Z,15.43
2023-03-22T13:56:52.569Z,16.38
2023-03-22T13:59:27.658Z,15.13
2023-03-22T14:02:02.585Z,17.75
2023-03-22T14:04:43.283Z,16.83
2023-03-22T14:07:38.717Z,16.25
2023-03-22T14:10:43.380Z,17.33
2023-03-22T14:13:42.773Z,17.38
2023-03-22T14:16:20.038Z,13.93
2023-03-22T14:18:51.609Z,15.73
2023-03-22T14:21:39.896Z,14.85
